Time;durP1;ratioP1;P1;durP2;ratioP2;P2;SDS_P1;SDS_P2;PMS_P1;PMS_P2;Temp;Humidity;BMP_temperature;BMP_pressure;BME280_temperature;BME280_humidity;BME280_pressure;Samples;Min_cycle;Max_cycle;Signal;HPM_P1;HPM_P2
2022/02/28 00:03:15;;;;;;;4.57;4.28;;;;;;;;;;5032788;28;20206;-93
2022/02/28 00:06:15;;;;;;;3.75;3.55;;;;;;;;;;5044574;28;20238;-93
2022/02/28 00:09:31;;;;;;;;;;;;;;;;;;;;;
2022/02/28 00:12:25;;;;;;;3.42;3.33;;;;;;;;;;5043305;28;20168;-92
2022/02/28 00:15:34;;;;;;;3.67;3.45;;;;;;;;;;5044632;28;20184;-93
2022/02/28 00:18:46;;;;;;;3.75;3.58;;;;;;;;;;5022554;28;20271;-93
2022/02/28 00:24:58;;;;;;;3.33;3.15;;;;;;;;;;5031224;28;20507;-94
2022/02/28 00:28:05;;;;;;;4.47;3.90;;;;;;;;;;5044128;28;20235;-94
2022/02/28 00:31:09;;;;;;;5.20;4.88;;;;;;;;;;5038628;28;20184;-94
2022/02/28 00:34:15;;;;;;;5.60;3.65;;;;;;;;;;5044942;28;20183;-93
2022/02/28 00:37:21;;;;;;;2.80;2.70;;;;;;;;;;5045651;28;20575;-92
2022/02/28 00:40:32;;;;;;;4.80;4.40;;;;;;;;;;5040787;28;20258;-92
2022/02/28 00:43:34;;;;;;;5.15;4.60;;;;;;;;;;5042766;28;20244;-94
2022/02/28 00:46:40;;;;;;;4.38;4.18;;;;;;;;;;5038283;28;20203;-93
2022/02/28 00:49:46;;;;;;;3.80;3.60;;;;;;;;;;5045098;28;20176;-93
2022/02/28 00:52:54;;;;;;;4.35;4.10;;;;;;;;;;5042810;28;20227;-93
2022/02/28 00:56:04;;;;;;;5.03;4.53;;;;;;;;;;5038927;28;20313;-93
2022/02/28 00:59:07;;;;;;;4.10;4.00;;;;;;;;;;5020456;28;20423;-95
2022/02/28 01:02:13;;;;;;;3.85;3.75;;;;;;;;;;5034505;28;20211;-94
2022/02/28 01:05:19;;;;;;;4.85;4.45;;;;;;;;;;5035051;28;20237;-93
2022/02/28 01:08:24;;;;;;;4.40;4.20;;;;;;;;;;5032928;28;20202;-93
2022/02/28 01:11:30;;;;;;;4.38;3.80;;;;;;;;;;5026639;28;20188;-94
2022/02/28 01:14:36;;;;;;;4.70;4.40;;;;;;;;;;5044893;28;20212;-92
2022/02/28 01:17:42;;;;;;;4.90;4.50;;;;;;;;;;5038531;28;20192;-93
2022/02/28 01:20:50;;;;;;;4.60;4.40;;;;;;;;;;5041528;28;20215;-94
2022/02/28 01:23:54;;;;;;;4.28;3.97;;;;;;;;;;5033726;28;20465;-93
2022/02/28 01:27:00;;;;;;;3.60;3.50;;;;;;;;;;5032538;28;20626;-93
2022/02/28 01:30:06;;;;;;;4.05;3.85;;;;;;;;;;5028802;28;20192;-94
2022/02/28 01:33:11;;;;;;;4.15;3.90;;;;;;;;;;5032327;28;20227;-93
2022/02/28 01:36:17;;;;;;;5.55;4.45;;;;;;;;;;5039230;28;20267;-93
2022/02/28 01:39:23;;;;;;;4.80;4.40;;;;;;;;;;5037757;28;20180;-92
2022/02/28 01:42:29;;;;;;;3.92;3.70;;;;;;;;;;5028270;28;20214;-93
2022/02/28 01:45:35;;;;;;;3.90;3.35;;;;;;;;;;5035852;28;20190;-93
2022/02/28 01:48:41;;;;;;;4.13;3.90;;;;;;;;;;5022929;28;20192;-92
2022/02/28 01:51:46;;;;;;;4.82;4.53;;;;;;;;;;5025706;28;20698;-92
2022/02/28 01:54:52;;;;;;;5.10;4.80;;;;;;;;;;5033586;28;20671;-94
2022/02/28 01:57:58;;;;;;;4.80;4.45;;;;;;;;;;5031262;28;20226;-93
2022/02/28 02:01:04;;;;;;;4.37;4.17;;;;;;;;;;5034707;28;20202;-92
2022/02/28 02:04:10;;;;;;;4.20;4.00;;;;;;;;;;5039768;28;20464;-92
2022/02/28 02:07:16;;;;;;;4.63;4.43;;;;;;;;;;5033116;28;20234;-93
2022/02/28 02:10:44;;;;;;;4.32;4.10;;;;;;;;;;5048143;23;20232;-88
2022/02/28 02:13:11;;;;;;;4.07;3.87;;;;;;;;;;5036294;28;20180;-86
2022/02/28 02:15:38;;;;;;;4.05;3.72;;;;;;;;;;5014855;28;20439;-86
2022/02/28 02:18:04;;;;;;;4.80;4.60;;;;;;;;;;5021895;28;20231;-85
2022/02/28 02:20:32;;;;;;;5.22;5.00;;;;;;;;;;5022188;28;20189;-88
2022/02/28 02:22:59;;;;;;;5.67;5.40;;;;;;;;;;5002416;28;20680;-86
2022/02/28 02:25:25;;;;;;;4.30;3.88;;;;;;;;;;5022721;28;20440;-85
2022/02/28 02:27:51;;;;;;;4.70;4.50;;;;;;;;;;5012548;28;20221;-86
2022/02/28 02:30:17;;;;;;;4.72;4.47;;;;;;;;;;5014946;28;20209;-86
2022/02/28 02:32:43;;;;;;;5.53;5.18;;;;;;;;;;5030908;28;20200;-86
2022/02/28 02:35:13;;;;;;;4.55;4.15;;;;;;;;;;5008342;28;20185;-87
2022/02/28 02:37:39;;;;;;;5.27;4.67;;;;;;;;;;5010386;28;20177;-86
2022/02/28 02:40:06;;;;;;;4.60;4.20;;;;;;;;;;5009512;28;20955;-86
2022/02/28 02:42:34;;;;;;;4.15;4.05;;;;;;;;;;4997768;28;20249;-86
2022/02/28 02:45:00;;;;;;;4.35;4.20;;;;;;;;;;5015690;28;20260;-87
2022/02/28 02:47:26;;;;;;;4.90;4.55;;;;;;;;;;5007166;28;20197;-86
2022/02/28 02:50:06;;;;;;;4.55;4.20;;;;;;;;;;5015501;28;20207;-86
2022/02/28 02:53:01;;;;;;;4.85;4.63;;;;;;;;;;5003421;28;20212;-86
2022/02/28 02:55:30;;;;;;;5.90;5.40;;;;;;;;;;5017526;28;20205;-86
2022/02/28 02:58:05;;;;;;;4.28;4.10;;;;;;;;;;5031785;28;20232;-86
2022/02/28 03:00:36;;;;;;;5.05;4.75;;;;;;;;;;4995927;28;20166;-86
2022/02/28 03:03:02;;;;;;;4.72;4.32;;;;;;;;;;5018211;28;20193;-87
2022/02/28 03:05:28;;;;;;;5.00;4.72;;;;;;;;;;5011585;28;20280;-87
2022/02/28 03:07:58;;;;;;;4.17;3.97;;;;;;;;;;5016012;28;20236;-88
2022/02/28 03:10:26;;;;;;;5.15;4.85;;;;;;;;;;5015753;28;20469;-87
2022/02/28 03:12:57;;;;;;;5.00;4.70;;;;;;;;;;5036894;28;20176;-86
2022/02/28 03:15:33;;;;;;;4.82;4.50;;;;;;;;;;5037888;28;20180;-86
2022/02/28 03:18:02;;;;;;;4.35;4.00;;;;;;;;;;5037785;28;20180;-86
2022/02/28 03:20:28;;;;;;;4.18;3.97;;;;;;;;;;5031838;28;20208;-86
2022/02/28 03:23:10;;;;;;;4.90;4.60;;;;;;;;;;5015584;28;20189;-86
2022/02/28 03:25:36;;;;;;;6.55;4.60;;;;;;;;;;5029295;28;20181;-86
2022/02/28 03:28:02;;;;;;;5.03;4.90;;;;;;;;;;5011345;28;20256;-86
2022/02/28 03:30:28;;;;;;;4.90;4.70;;;;;;;;;;5023555;28;20439;-85
2022/02/28 03:32:55;;;;;;;4.22;4.03;;;;;;;;;;5015395;28;20181;-85
2022/02/28 03:35:21;;;;;;;5.07;4.82;;;;;;;;;;5020988;28;20179;-87
2022/02/28 03:37:50;;;;;;;5.20;4.90;;;;;;;;;;5025503;28;20168;-86
2022/02/28 03:40:17;;;;;;;4.72;4.43;;;;;;;;;;5015845;28;20262;-85
2022/02/28 03:42:43;;;;;;;5.03;4.70;;;;;;;;;;5022228;28;20613;-86
2022/02/28 03:45:09;;;;;;;6.43;5.87;;;;;;;;;;5023733;28;20188;-89
2022/02/28 03:47:35;;;;;;;5.25;4.95;;;;;;;;;;5007044;28;20492;-86
2022/02/28 03:50:01;;;;;;;4.60;4.50;;;;;;;;;;5022655;28;20189;-86
2022/02/28 03:52:27;;;;;;;5.43;4.70;;;;;;;;;;5023789;28;20204;-85
2022/02/28 03:54:53;;;;;;;5.97;5.25;;;;;;;;;;5016669;28;20180;-85
2022/02/28 03:57:20;;;;;;;5.13;4.73;;;;;;;;;;5021013;28;20212;-86
2022/02/28 03:59:46;;;;;;;5.95;5.35;;;;;;;;;;5009851;28;20410;-87
2022/02/28 04:02:13;;;;;;;6.60;5.30;;;;;;;;;;5023872;28;20262;-86
2022/02/28 04:04:39;;;;;;;5.63;5.22;;;;;;;;;;5028300;28;20908;-86
2022/02/28 04:07:05;;;;;;;5.03;4.65;;;;;;;;;;5002917;28;20606;-79
2022/02/28 04:09:37;;;;;;;6.00;5.60;;;;;;;;;;5017097;28;20362;-87
2022/02/28 04:12:03;;;;;;;12.75;6.57;;;;;;;;;;5022708;28;20188;-87
2022/02/28 04:14:29;;;;;;;5.20;4.90;;;;;;;;;;5026906;28;20189;-86
2022/02/28 04:16:57;;;;;;;6.13;5.53;;;;;;;;;;5023999;28;20292;-86
2022/02/28 04:19:26;;;;;;;5.85;5.18;;;;;;;;;;5013585;28;20189;-87
2022/02/28 04:21:52;;;;;;;5.60;5.10;;;;;;;;;;5072048;23;20726;-85
2022/02/28 04:24:18;;;;;;;5.57;5.18;;;;;;;;;;5007193;28;20239;-85
2022/02/28 04:26:44;;;;;;;8.68;5.90;;;;;;;;;;4987822;28;20212;-85
2022/02/28 04:29:12;;;;;;;6.23;5.73;;;;;;;;;;5007004;28;20200;-84
2022/02/28 04:31:46;;;;;;;5.45;5.10;;;;;;;;;;4987489;28;20538;-84
2022/02/28 04:34:13;;;;;;;5.90;5.60;;;;;;;;;;5006905;28;20173;-84
2022/02/28 04:36:42;;;;;;;5.97;5.40;;;;;;;;;;5004415;28;20211;-84
2022/02/28 04:39:09;;;;;;;5.80;4.70;;;;;;;;;;4989199;28;20199;-85
2022/02/28 04:41:35;;;;;;;5.03;4.60;;;;;;;;;;4987169;28;20199;-84
2022/02/28 04:44:02;;;;;;;6.88;5.00;;;;;;;;;;5006321;28;20648;-84
2022/02/28 04:46:28;;;;;;;6.25;5.75;;;;;;;;;;4986954;28;20707;-84
2022/02/28 04:48:54;;;;;;;7.25;5.88;;;;;;;;;;4988367;28;20180;-84
2022/02/28 04:51:23;;;;;;;6.63;6.05;;;;;;;;;;5004041;28;20670;-84
2022/02/28 04:53:52;;;;;;;6.53;5.40;;;;;;;;;;5007104;28;20180;-85
2022/02/28 04:56:18;;;;;;;5.63;5.32;;;;;;;;;;4984762;28;20739;-85
2022/02/28 04:58:45;;;;;;;6.23;5.63;;;;;;;;;;5006251;28;20315;-85
2022/02/28 05:01:11;;;;;;;5.13;4.70;;;;;;;;;;4987167;28;20501;-85
2022/02/28 05:03:37;;;;;;;6.72;5.13;;;;;;;;;;5006363;28;20172;-85
2022/02/28 05:06:08;;;;;;;6.57;6.15;;;;;;;;;;4986754;28;20208;-86
2022/02/28 05:08:36;;;;;;;5.45;4.90;;;;;;;;;;5006679;28;20643;-86
2022/02/28 05:11:02;;;;;;;6.25;5.85;;;;;;;;;;4986616;28;20279;-86
2022/02/28 05:13:28;;;;;;;7.13;6.55;;;;;;;;;;5006729;28;20741;-85
2022/02/28 05:15:55;;;;;;;6.10;5.60;;;;;;;;;;4986076;28;20282;-83
2022/02/28 05:18:21;;;;;;;5.67;5.23;;;;;;;;;;4657377;28;10000657;-83
2022/02/28 05:20:47;;;;;;;5.95;5.60;;;;;;;;;;5009112;28;20223;-84
2022/02/28 05:23:15;;;;;;;5.95;5.55;;;;;;;;;;5002317;28;20228;-85
2022/02/28 05:25:41;;;;;;;5.63;5.25;;;;;;;;;;5022911;28;20371;-84
2022/02/28 05:28:10;;;;;;;6.50;5.90;;;;;;;;;;5023591;28;20779;-84
2022/02/28 05:30:46;;;;;;;;;;;;;;;;;;;;;
2022/02/28 05:33:12;;;;;;;5.88;5.45;;;;;;;;;;5024609;28;20183;-84
2022/02/28 05:35:38;;;;;;;7.70;6.75;;;;;;;;;;5009447;28;20263;-84
2022/02/28 05:38:04;;;;;;;11.13;5.75;;;;;;;;;;5024736;28;20208;-85
2022/02/28 05:40:30;;;;;;;5.88;5.40;;;;;;;;;;5028537;28;20251;-84
2022/02/28 05:42:56;;;;;;;7.90;7.20;;;;;;;;;;5005395;28;20200;-84
2022/02/28 05:45:22;;;;;;;7.23;6.80;;;;;;;;;;5026657;28;20238;-83
2022/02/28 05:47:48;;;;;;;5.93;5.53;;;;;;;;;;5023446;28;20448;-85
2022/02/28 05:50:14;;;;;;;6.60;5.27;;;;;;;;;;4988278;28;20181;-84
2022/02/28 05:52:40;;;;;;;6.63;6.07;;;;;;;;;;4989290;28;20471;-85
2022/02/28 05:55:07;;;;;;;10.95;5.80;;;;;;;;;;5018341;28;20549;-84
2022/02/28 05:57:37;;;;;;;6.40;5.80;;;;;;;;;;5007533;28;20685;-83
2022/02/28 06:00:04;;;;;;;6.60;6.10;;;;;;;;;;5003544;28;20253;-85
2022/02/28 06:02:30;;;;;;;6.13;5.30;;;;;;;;;;5017489;28;20610;-85
2022/02/28 06:04:56;;;;;;;6.05;5.60;;;;;;;;;;5002470;28;20185;-85
2022/02/28 06:07:26;;;;;;;6.90;5.40;;;;;;;;;;5009350;28;20235;-83
2022/02/28 06:09:52;;;;;;;8.82;6.40;;;;;;;;;;4998235;28;20547;-85
2022/02/28 06:12:18;;;;;;;9.82;6.05;;;;;;;;;;5011812;28;20271;-84
2022/02/28 06:14:44;;;;;;;5.95;5.55;;;;;;;;;;5027519;28;20184;-84
2022/02/28 06:17:10;;;;;;;7.63;6.90;;;;;;;;;;5028806;28;20332;-83
2022/02/28 06:19:42;;;;;;;6.20;5.78;;;;;;;;;;5028529;28;20219;-84
2022/02/28 06:22:09;;;;;;;14.13;12.73;;;;;;;;;;5010838;28;20228;-84
2022/02/28 06:24:35;;;;;;;9.70;7.32;;;;;;;;;;5026999;28;20192;-85
2022/02/28 06:27:12;;;;;;;8.45;7.57;;;;;;;;;;5011354;28;20211;-84
2022/02/28 06:29:40;;;;;;;11.90;8.60;;;;;;;;;;5011096;28;20274;-84
2022/02/28 06:32:06;;;;;;;6.53;5.93;;;;;;;;;;5015969;28;20279;-80
2022/02/28 06:34:32;;;;;;;8.27;7.47;;;;;;;;;;5012470;28;20646;-85
2022/02/28 06:36:59;;;;;;;9.85;8.85;;;;;;;;;;5014620;28;20180;-84
2022/02/28 06:39:46;;;;;;;8.32;7.45;;;;;;;;;;5012372;28;20184;-84
2022/02/28 06:42:13;;;;;;;8.57;7.55;;;;;;;;;;4999801;28;20549;-84
2022/02/28 06:44:42;;;;;;;7.88;7.10;;;;;;;;;;5009567;28;20706;-85
2022/02/28 06:47:08;;;;;;;7.00;5.97;;;;;;;;;;5028997;28;20732;-84
2022/02/28 06:49:34;;;;;;;7.10;5.88;;;;;;;;;;5026150;28;20196;-84
2022/02/28 06:52:31;;;;;;;7.63;6.80;;;;;;;;;;5011042;28;20175;-82
2022/02/28 06:54:57;;;;;;;8.35;6.20;;;;;;;;;;4997036;28;20242;-86
2022/02/28 06:57:24;;;;;;;7.90;7.25;;;;;;;;;;5010107;28;20221;-85
2022/02/28 07:00:30;;;;;;;8.95;8.13;;;;;;;;;;5008261;28;20676;-85
2022/02/28 07:02:56;;;;;;;7.03;6.32;;;;;;;;;;5009859;28;20215;-85
2022/02/28 07:06:04;;;;;;;6.93;6.28;;;;;;;;;;5017697;28;20270;-85
2022/02/28 07:08:30;;;;;;;7.50;6.80;;;;;;;;;;4960216;28;20184;-84
2022/02/28 07:10:57;;;;;;;7.03;6.53;;;;;;;;;;4994063;28;20212;-85
2022/02/28 07:13:25;;;;;;;7.07;6.53;;;;;;;;;;5032012;28;20722;-85
2022/02/28 07:15:55;;;;;;;7.03;6.40;;;;;;;;;;5013691;28;20188;-84
2022/02/28 07:18:21;;;;;;;6.90;6.30;;;;;;;;;;5014931;28;20180;-86
2022/02/28 07:20:47;;;;;;;6.00;5.50;;;;;;;;;;5015510;28;20199;-85
2022/02/28 07:23:13;;;;;;;6.10;5.60;;;;;;;;;;5018498;28;20466;-85
2022/02/28 07:25:41;;;;;;;5.95;5.45;;;;;;;;;;5016871;28;20399;-85
2022/02/28 07:28:08;;;;;;;5.97;5.57;;;;;;;;;;5016014;28;20286;-83
2022/02/28 07:30:34;;;;;;;4.97;4.57;;;;;;;;;;5016310;28;20445;-84
2022/02/28 07:33:00;;;;;;;6.20;5.80;;;;;;;;;;5015654;28;20484;-84
2022/02/28 07:35:29;;;;;;;6.40;5.90;;;;;;;;;;5032932;28;20945;-84
2022/02/28 07:37:55;;;;;;;6.63;5.87;;;;;;;;;;5015634;28;20529;-84
2022/02/28 07:40:23;;;;;;;6.77;6.17;;;;;;;;;;4676956;28;9999974;-84
2022/02/28 07:42:52;;;;;;;6.13;5.67;;;;;;;;;;5015533;28;20199;-84
2022/02/28 07:45:25;;;;;;;6.87;6.37;;;;;;;;;;5010549;28;20492;-85
2022/02/28 07:50:40;;;;;;;7.07;6.50;;;;;;;;;;5009849;28;20837;-85
2022/02/28 07:53:06;;;;;;;6.20;5.90;;;;;;;;;;5008273;28;20423;-85
2022/02/28 07:55:32;;;;;;;7.50;5.70;;;;;;;;;;5007015;28;20802;-84
2022/02/28 07:58:06;;;;;;;6.53;5.97;;;;;;;;;;5009874;28;20419;-85
2022/02/28 08:00:32;;;;;;;6.43;6.03;;;;;;;;;;4991038;28;20430;-84
2022/02/28 08:02:58;;;;;;;7.20;6.80;;;;;;;;;;5008967;28;20430;-84
2022/02/28 08:05:27;;;;;;;7.40;6.80;;;;;;;;;;5007207;28;20465;-86
2022/02/28 08:07:55;;;;;;;6.97;6.37;;;;;;;;;;5009420;28;20860;-85
2022/02/28 08:10:21;;;;;;;8.03;7.43;;;;;;;;;;5007280;28;20956;-85
2022/02/28 08:12:47;;;;;;;8.80;7.90;;;;;;;;;;5029239;28;21155;-86
2022/02/28 08:15:16;;;;;;;7.60;7.00;;;;;;;;;;5025960;28;20481;-84
2022/02/28 08:17:48;;;;;;;8.00;7.30;;;;;;;;;;5008135;28;20403;-84
2022/02/28 08:20:14;;;;;;;7.63;7.03;;;;;;;;;;4988598;28;20963;-85
2022/02/28 08:22:40;;;;;;;8.60;7.87;;;;;;;;;;5008314;28;20539;-84
2022/02/28 08:25:09;;;;;;;9.07;8.27;;;;;;;;;;5009133;28;20582;-85
2022/02/28 08:27:38;;;;;;;8.57;7.63;;;;;;;;;;5007576;28;20474;-85
2022/02/28 08:30:04;;;;;;;8.40;7.77;;;;;;;;;;5008527;28;20423;-85
2022/02/28 08:32:30;;;;;;;7.80;7.07;;;;;;;;;;5025406;28;20979;-86
2022/02/28 08:34:57;;;;;;;8.63;7.93;;;;;;;;;;5008949;28;20534;-85
2022/02/28 08:37:23;;;;;;;8.07;7.47;;;;;;;;;;5007949;28;21008;-84
2022/02/28 08:39:52;;;;;;;8.10;7.60;;;;;;;;;;5011002;28;20419;-85
2022/02/28 08:42:26;;;;;;;8.50;7.90;;;;;;;;;;5022190;28;20439;-86
2022/02/28 08:45:03;;;;;;;8.83;8.20;;;;;;;;;;5011080;28;20431;-85
2022/02/28 08:47:29;;;;;;;9.03;7.93;;;;;;;;;;5007459;28;20476;-85
2022/02/28 08:49:55;;;;;;;9.10;8.10;;;;;;;;;;5009761;28;20411;-87
2022/02/28 08:52:24;;;;;;;8.47;7.70;;;;;;;;;;5007910;28;20438;-85
2022/02/28 08:54:53;;;;;;;8.90;8.30;;;;;;;;;;5009223;28;20441;-88
2022/02/28 08:57:21;;;;;;;10.10;9.20;;;;;;;;;;5025265;28;20429;-86
2022/02/28 08:59:47;;;;;;;8.80;8.10;;;;;;;;;;5010202;28;20531;-85
2022/02/28 09:02:19;;;;;;;9.70;9.00;;;;;;;;;;5010303;28;20773;-83
2022/02/28 09:04:45;;;;;;;9.23;8.57;;;;;;;;;;5015447;28;20421;-87
2022/02/28 09:07:11;;;;;;;9.13;8.43;;;;;;;;;;5011697;28;20524;-81
2022/02/28 09:09:37;;;;;;;9.50;8.80;;;;;;;;;;5030483;28;20493;-81
2022/02/28 09:12:03;;;;;;;8.57;7.93;;;;;;;;;;5010693;28;20513;-81
2022/02/28 09:14:29;;;;;;;8.90;8.30;;;;;;;;;;5030041;28;20923;-81
2022/02/28 09:16:55;;;;;;;7.80;7.30;;;;;;;;;;5010233;28;20488;-81
2022/02/28 09:19:21;;;;;;;8.37;7.77;;;;;;;;;;5014622;28;20423;-86
2022/02/28 09:21:53;;;;;;;10.57;9.77;;;;;;;;;;5027295;28;20734;-86
2022/02/28 09:24:57;;;;;;;8.20;7.60;;;;;;;;;;5022834;28;20455;-89
2022/02/28 09:27:43;;;;;;;8.67;8.03;;;;;;;;;;5033444;28;20493;-91
2022/02/28 09:30:32;;;;;;;8.10;7.50;;;;;;;;;;5030876;28;20410;-89
2022/02/28 09:33:10;;;;;;;9.23;8.53;;;;;;;;;;5035503;28;20434;-90
2022/02/28 09:35:52;;;;;;;;;;;;;;;;;;;;;
2022/02/28 09:38:18;;;;;;;8.97;8.27;;;;;;;;;;5217909;22;20509;-92
2022/02/28 09:41:21;;;;;;;9.97;9.07;;;;;;;;;;5198738;23;20494;-89
2022/02/28 09:46:45;;;;;;;9.30;8.70;;;;;;;;;;5079826;23;20497;-91
2022/02/28 09:49:35;;;;;;;8.97;8.30;;;;;;;;;;5011577;28;20752;-90
2022/02/28 09:52:24;;;;;;;9.63;8.93;;;;;;;;;;5014063;28;20507;-89
2022/02/28 09:55:26;;;;;;;9.73;8.93;;;;;;;;;;5023311;28;20410;-92
2022/02/28 09:58:02;;;;;;;8.57;7.97;;;;;;;;;;5080752;23;20465;-90
2022/02/28 10:01:05;;;;;;;8.83;8.13;;;;;;;;;;5052281;28;20433;-89
2022/02/28 10:06:07;;;;;;;9.00;8.10;;;;;;;;;;4015793;23;20554;-87
2022/02/28 10:09:33;;;;;;;8.20;7.60;;;;;;;;;;5015152;28;20435;-86
2022/02/28 10:12:33;;;;;;;9.13;8.50;;;;;;;;;;4969720;29;20434;-89
2022/02/28 10:15:13;;;;;;;8.70;8.10;;;;;;;;;;4896863;29;20500;-92
2022/02/28 10:18:04;;;;;;;8.07;7.27;;;;;;;;;;5025596;28;20435;-87
2022/02/28 10:23:29;;;;;;;10.10;9.10;;;;;;;;;;5009588;28;20480;-91
2022/02/28 10:32:57;;;;;;;9.37;8.57;;;;;;;;;;4991629;28;20442;-91
2022/02/28 10:38:15;;;;;;;9.73;8.83;;;;;;;;;;5056755;23;20976;-86
2022/02/28 10:40:50;;;;;;;8.47;7.83;;;;;;;;;;5001667;28;20427;-86
2022/02/28 10:43:34;;;;;;;8.30;7.80;;;;;;;;;;5023208;28;20825;-85
2022/02/28 10:46:22;;;;;;;9.03;8.23;;;;;;;;;;5020285;28;20443;-83
2022/02/28 10:48:55;;;;;;;8.97;8.40;;;;;;;;;;5009396;28;20426;-82
2022/02/28 10:51:21;;;;;;;8.70;8.00;;;;;;;;;;5009961;28;20434;-83
2022/02/28 10:53:47;;;;;;;8.50;7.90;;;;;;;;;;5029611;28;20430;-85
2022/02/28 10:56:13;;;;;;;11.03;8.57;;;;;;;;;;5003082;28;20745;-83
2022/02/28 10:58:39;;;;;;;7.27;6.77;;;;;;;;;;5029378;28;20570;-82
2022/02/28 11:01:09;;;;;;;7.87;7.37;;;;;;;;;;5026309;28;20464;-82
2022/02/28 11:03:45;;;;;;;9.20;8.40;;;;;;;;;;5005126;28;20948;-83
2022/02/28 11:06:13;;;;;;;9.20;8.50;;;;;;;;;;5026132;28;20520;-83
2022/02/28 11:08:42;;;;;;;9.70;8.80;;;;;;;;;;5027172;28;20430;-84
2022/02/28 11:11:09;;;;;;;9.00;8.20;;;;;;;;;;5026009;28;20446;-84
2022/02/28 11:13:35;;;;;;;8.97;8.27;;;;;;;;;;5001691;28;20410;-84
2022/02/28 11:16:01;;;;;;;9.97;9.10;;;;;;;;;;5023166;28;20444;-83
2022/02/28 11:18:28;;;;;;;8.13;7.63;;;;;;;;;;5025058;28;20445;-84
2022/02/28 11:20:55;;;;;;;9.20;8.40;;;;;;;;;;5021344;28;20422;-84
2022/02/28 11:23:21;;;;;;;8.37;7.73;;;;;;;;;;5005404;28;20458;-85
2022/02/28 11:25:48;;;;;;;8.97;8.37;;;;;;;;;;5024937;28;20442;-84
2022/02/28 11:28:14;;;;;;;8.13;7.47;;;;;;;;;;5024663;28;20502;-83
2022/02/28 11:30:41;;;;;;;8.03;7.47;;;;;;;;;;5008016;28;20737;-83
2022/02/28 11:33:09;;;;;;;8.40;7.90;;;;;;;;;;5016018;28;20455;-85
2022/02/28 11:35:34;;;;;;;11.73;9.63;;;;;;;;;;5020779;28;20952;-83
2022/02/28 11:38:01;;;;;;;8.83;8.23;;;;;;;;;;5020260;28;20467;-84
2022/02/28 11:40:34;;;;;;;8.30;7.50;;;;;;;;;;5003678;28;20440;-83
2022/02/28 11:43:02;;;;;;;8.50;7.70;;;;;;;;;;5005123;28;20431;-80
2022/02/28 11:45:31;;;;;;;7.97;7.47;;;;;;;;;;5003456;28;20983;-81
2022/02/28 11:48:16;;;;;;;8.03;7.43;;;;;;;;;;5004184;28;20479;-82
2022/02/28 11:50:48;;;;;;;8.63;7.97;;;;;;;;;;5002730;28;20470;-83
2022/02/28 11:53:14;;;;;;;8.70;8.00;;;;;;;;;;5004129;28;20438;-83
2022/02/28 11:55:40;;;;;;;8.10;7.47;;;;;;;;;;5004249;28;20447;-83
2022/02/28 11:58:15;;;;;;;7.57;7.10;;;;;;;;;;5004275;28;20491;-83
2022/02/28 12:00:45;;;;;;;8.50;7.80;;;;;;;;;;4656191;28;10000536;-82
2022/02/28 12:03:30;;;;;;;8.60;8.10;;;;;;;;;;4999795;28;20176;-84
2022/02/28 12:05:58;;;;;;;8.00;7.43;;;;;;;;;;5000953;28;20807;-83
2022/02/28 12:08:38;;;;;;;8.30;7.70;;;;;;;;;;5003297;28;20522;-84
2022/02/28 12:11:17;;;;;;;8.63;7.93;;;;;;;;;;5002035;28;21286;-82
2022/02/28 12:13:44;;;;;;;8.63;8.00;;;;;;;;;;5004571;28;21045;-82
2022/02/28 12:17:30;;;;;;;7.07;6.67;;;;;;;;;;5014538;28;20481;-82
2022/02/28 12:19:14;;;;;;;7.83;7.53;;;;;;;;;;5007667;28;20471;-84
2022/02/28 12:21:40;;;;;;;7.63;7.13;;;;;;;;;;5004011;28;20975;-82
2022/02/28 12:24:14;;;;;;;8.20;7.50;;;;;;;;;;5005545;28;20438;-83
2022/02/28 12:27:01;;;;;;;9.13;8.47;;;;;;;;;;4999278;28;20544;-82
2022/02/28 12:29:30;;;;;;;8.67;8.13;;;;;;;;;;5005923;28;20417;-82
2022/02/28 12:31:59;;;;;;;7.33;6.93;;;;;;;;;;5006510;28;20424;-85
2022/02/28 12:34:50;;;;;;;8.43;7.93;;;;;;;;;;4987357;28;20435;-84
2022/02/28 12:37:16;;;;;;;7.93;7.43;;;;;;;;;;5001001;28;20539;-84
2022/02/28 12:39:51;;;;;;;8.00;7.20;;;;;;;;;;5007846;28;20454;-83
2022/02/28 12:42:18;;;;;;;8.60;7.90;;;;;;;;;;4995352;28;20437;-84
2022/02/28 12:44:44;;;;;;;8.60;8.00;;;;;;;;;;5006292;28;20455;-85
2022/02/28 12:47:10;;;;;;;8.83;8.23;;;;;;;;;;5007934;28;20830;-86
2022/02/28 12:49:38;;;;;;;8.33;7.80;;;;;;;;;;5005349;28;20519;-85
2022/02/28 12:52:08;;;;;;;8.83;8.23;;;;;;;;;;5007816;28;20442;-85
2022/02/28 12:54:34;;;;;;;9.07;8.27;;;;;;;;;;5003956;28;20789;-86
2022/02/28 12:57:02;;;;;;;9.37;8.77;;;;;;;;;;4989467;28;20421;-85
2022/02/28 12:59:36;;;;;;;8.90;8.30;;;;;;;;;;5005905;28;20427;-85
2022/02/28 13:02:04;;;;;;;9.67;9.00;;;;;;;;;;5005522;28;20435;-85
2022/02/28 13:04:30;;;;;;;9.30;8.33;;;;;;;;;;4987893;28;20458;-83
2022/02/28 13:06:56;;;;;;;9.47;8.67;;;;;;;;;;4655578;28;10000010;-85
2022/02/28 13:09:22;;;;;;;8.67;8.00;;;;;;;;;;4985363;28;20502;-84
2022/02/28 13:12:06;;;;;;;9.13;8.40;;;;;;;;;;4983416;28;20447;-82
2022/02/28 13:14:32;;;;;;;8.33;7.87;;;;;;;;;;4984424;28;20466;-83
2022/02/28 13:16:59;;;;;;;8.73;8.03;;;;;;;;;;5003228;28;20509;-83
2022/02/28 13:19:32;;;;;;;8.93;8.30;;;;;;;;;;5001607;28;20440;-84
2022/02/28 13:21:58;;;;;;;11.80;9.20;;;;;;;;;;4999305;28;20452;-82
2022/02/28 13:24:26;;;;;;;8.87;8.10;;;;;;;;;;5002492;28;20454;-84
2022/02/28 13:26:52;;;;;;;8.73;8.13;;;;;;;;;;5002400;28;20485;-80
2022/02/28 13:29:20;;;;;;;9.03;8.33;;;;;;;;;;5003763;28;20860;-84
2022/02/28 13:31:47;;;;;;;8.67;8.07;;;;;;;;;;5004841;28;20517;-83
2022/02/28 13:34:13;;;;;;;8.10;7.50;;;;;;;;;;5006164;28;20423;-84
2022/02/28 13:36:41;;;;;;;8.47;7.97;;;;;;;;;;5004378;28;20438;-84
2022/02/28 13:39:08;;;;;;;8.93;8.33;;;;;;;;;;5006398;28;20455;-83
2022/02/28 13:41:44;;;;;;;8.27;7.77;;;;;;;;;;5001266;28;20439;-81
2022/02/28 13:44:11;;;;;;;8.10;7.50;;;;;;;;;;5025209;28;20829;-84
2022/02/28 13:46:38;;;;;;;8.87;8.37;;;;;;;;;;4997317;28;20770;-83
2022/02/28 13:49:04;;;;;;;9.20;8.43;;;;;;;;;;5008403;28;20424;-84
2022/02/28 13:51:43;;;;;;;8.53;8.03;;;;;;;;;;5007342;28;20451;-84
2022/02/28 13:54:12;;;;;;;7.80;7.40;;;;;;;;;;5011315;28;20504;-83
2022/02/28 13:56:39;;;;;;;8.70;8.10;;;;;;;;;;4990291;28;20515;-84
2022/02/28 13:59:10;;;;;;;9.30;8.60;;;;;;;;;;5006231;28;20424;-84
2022/02/28 14:01:36;;;;;;;8.63;7.80;;;;;;;;;;4989834;28;20963;-83
2022/02/28 14:04:05;;;;;;;8.37;7.53;;;;;;;;;;4991045;28;20953;-84
2022/02/28 14:06:31;;;;;;;7.57;7.07;;;;;;;;;;4655512;28;10000616;-85
2022/02/28 14:08:57;;;;;;;7.80;7.30;;;;;;;;;;5006469;28;20602;-85
2022/02/28 14:11:28;;;;;;;7.63;7.10;;;;;;;;;;5007780;28;20424;-85
2022/02/28 14:13:55;;;;;;;7.30;6.90;;;;;;;;;;5007179;28;20548;-84
2022/02/28 14:16:32;;;;;;;8.03;7.30;;;;;;;;;;5009981;28;20536;-85
2022/02/28 14:19:01;;;;;;;7.00;6.60;;;;;;;;;;5002058;28;20447;-84
2022/02/28 14:21:27;;;;;;;7.67;7.20;;;;;;;;;;5009940;28;20427;-84
2022/02/28 14:23:56;;;;;;;7.60;7.10;;;;;;;;;;4990719;28;20451;-84
2022/02/28 14:26:22;;;;;;;8.47;7.87;;;;;;;;;;4992236;28;20528;-83
2022/02/28 14:28:49;;;;;;;8.80;7.70;;;;;;;;;;5010855;28;20490;-84
2022/02/28 14:31:16;;;;;;;6.97;6.33;;;;;;;;;;4992677;28;20432;-83
2022/02/28 14:33:46;;;;;;;7.00;6.40;;;;;;;;;;5013286;28;20470;-84
2022/02/28 14:36:12;;;;;;;6.97;6.40;;;;;;;;;;5013034;28;20459;-84
2022/02/28 14:38:38;;;;;;;7.37;6.93;;;;;;;;;;5010416;28;20986;-84
2022/02/28 14:41:05;;;;;;;6.77;6.40;;;;;;;;;;5011379;28;20482;-83
2022/02/28 14:43:31;;;;;;;6.30;6.00;;;;;;;;;;5011574;28;20443;-83
2022/02/28 14:45:58;;;;;;;7.30;6.70;;;;;;;;;;5012676;28;20723;-84
2022/02/28 14:48:24;;;;;;;7.63;7.17;;;;;;;;;;5009019;28;21040;-85
2022/02/28 14:50:50;;;;;;;7.70;7.13;;;;;;;;;;5009402;28;20414;-84
2022/02/28 14:53:17;;;;;;;7.30;6.70;;;;;;;;;;4989041;28;20585;-85
2022/02/28 14:55:43;;;;;;;6.93;6.43;;;;;;;;;;5008460;28;20780;-84
2022/02/28 14:58:10;;;;;;;7.37;6.70;;;;;;;;;;5007208;28;20462;-82
2022/02/28 15:00:36;;;;;;;7.17;6.67;;;;;;;;;;5002475;28;20827;-84
2022/02/28 15:03:02;;;;;;;8.00;7.30;;;;;;;;;;5007228;28;20490;-84
2022/02/28 15:05:32;;;;;;;6.20;5.90;;;;;;;;;;5006182;28;20534;-84
2022/02/28 15:07:58;;;;;;;8.57;7.87;;;;;;;;;;5006519;28;21068;-83
2022/02/28 15:10:24;;;;;;;6.73;6.10;;;;;;;;;;4659666;28;10000117;-84
2022/02/28 15:12:53;;;;;;;7.10;6.53;;;;;;;;;;5005358;28;20188;-84
2022/02/28 15:15:19;;;;;;;6.87;6.37;;;;;;;;;;5003612;28;20475;-84
2022/02/28 15:17:45;;;;;;;7.53;6.70;;;;;;;;;;5005794;28;20451;-84
2022/02/28 15:20:12;;;;;;;6.40;5.97;;;;;;;;;;4986083;28;20455;-85
2022/02/28 15:22:38;;;;;;;7.03;6.43;;;;;;;;;;4998661;28;20435;-84
2022/02/28 15:25:04;;;;;;;7.70;7.00;;;;;;;;;;5003012;28;20435;-85
2022/02/28 15:27:30;;;;;;;6.87;6.47;;;;;;;;;;4988577;28;20995;-84
2022/02/28 15:29:56;;;;;;;8.57;6.50;;;;;;;;;;4984089;28;20921;-81
2022/02/28 15:32:26;;;;;;;6.10;5.70;;;;;;;;;;5007345;28;20436;-80
2022/02/28 15:34:52;;;;;;;6.50;5.87;;;;;;;;;;5003484;28;20447;-84
2022/02/28 15:37:18;;;;;;;7.30;6.70;;;;;;;;;;5003559;28;20479;-85
2022/02/28 15:39:49;;;;;;;6.97;6.30;;;;;;;;;;4985317;28;20541;-84
2022/02/28 15:42:15;;;;;;;5.93;5.50;;;;;;;;;;5005238;28;20469;-84
2022/02/28 15:44:41;;;;;;;6.37;5.97;;;;;;;;;;5002839;28;20452;-84
2022/02/28 15:47:07;;;;;;;6.13;5.73;;;;;;;;;;4987164;28;20479;-83
2022/02/28 15:49:33;;;;;;;6.03;5.63;;;;;;;;;;5003260;28;20449;-83
2022/02/28 15:52:00;;;;;;;5.40;5.00;;;;;;;;;;4987490;28;20426;-84